createdAt,value
2022-11-12T00:01:06.682Z,101692.16
2022-11-12T00:03:33.616Z,101690.41
2022-11-12T00:06:00.514Z,101693.72
2022-11-12T00:08:27.843Z,101691.66
2022-11-12T00:10:55.047Z,101700.22
2022-11-12T00:13:22.079Z,101695.69
2022-11-12T00:15:49.085Z,101694.31
2022-11-12T00:18:16.036Z,101696.44
2022-11-12T00:20:43.090Z,101707.78
2022-11-12T00:23:10.055Z,101705.03
2022-11-12T00:25:37.012Z,101710.47
2022-11-12T00:28:10.217Z,101705.94
2022-11-12T00:30:41.554Z,101698.28
2022-11-12T00:33:08.541Z,101706.44
2022-11-12T00:35:35.821Z,101705.28
2022-11-12T00:38:02.888Z,101706.53
2022-11-12T00:40:30.071Z,101700.91
2022-11-12T00:42:57.535Z,101705.19
2022-11-12T00:45:24.547Z,101708.97
2022-11-12T00:47:56.602Z,101703.22
2022-11-12T00:50:24.058Z,101704.53
2022-11-12T00:52:55.156Z,101700.91
2022-11-12T00:55:22.180Z,101690.84
2022-11-12T00:57:49.318Z,101689.91
2022-11-12T01:00:19.054Z,101692.81
2022-11-12T01:02:50.705Z,101696.94
2022-11-12T01:05:21.551Z,101693.94
2022-11-12T01:07:54.694Z,101694.81
2022-11-12T01:10:23.363Z,101687.19
2022-11-12T01:12:50.391Z,101688.66
2022-11-12T01:15:17.498Z,101683.56
2022-11-12T01:17:44.447Z,101685.78
2022-11-12T01:20:11.609Z,101689.41
2022-11-12T01:22:38.591Z,101684.06
2022-11-12T01:25:06.279Z,101677.50
2022-11-12T01:27:34.359Z,101678.69
2022-11-12T01:30:01.298Z,101678.22
2022-11-12T01:32:28.439Z,101687.59
2022-11-12T01:34:55.685Z,101689.75
2022-11-12T01:37:22.593Z,101681.66
2022-11-12T01:39:49.548Z,101682.31
2022-11-12T01:42:16.520Z,101687.38
2022-11-12T01:44:46.357Z,101690.91
2022-11-12T01:47:24.694Z,101696.69
2022-11-12T01:50:40.408Z,101695.53
2022-11-12T01:53:12.652Z,101693.00
2022-11-12T01:55:40.837Z,101706.19
2022-11-12T01:58:16.147Z,101697.19
2022-11-12T02:00:43.422Z,101694.69
2022-11-12T02:03:19.457Z,101697.09
2022-11-12T02:05:53.428Z,101693.81
2022-11-12T02:08:21.178Z,101697.53
2022-11-12T02:10:48.093Z,101691.72
2022-11-12T02:13:33.619Z,101698.16
2022-11-12T02:16:00.697Z,101694.44
2022-11-12T02:18:27.857Z,101692.72
2022-11-12T02:20:58.149Z,101686.28
2022-11-12T02:23:25.121Z,101685.53
2022-11-12T02:25:52.042Z,101684.38
2022-11-12T02:28:19.147Z,101694.94
2022-11-12T02:30:49.527Z,101681.66
2022-11-12T02:33:16.861Z,101688.91
2022-11-12T02:35:43.999Z,101687.69
2022-11-12T02:38:11.146Z,101692.88
2022-11-12T02:40:38.115Z,101700.22
2022-11-12T02:43:05.368Z,101707.41
2022-11-12T02:45:32.333Z,101699.41
2022-11-12T02:47:59.377Z,101701.22
2022-11-12T02:50:26.332Z,101696.28
2022-11-12T02:52:53.439Z,101706.41
2022-11-12T02:55:20.582Z,101693.81
2022-11-12T02:57:47.481Z,101700.22
2022-11-12T03:00:14.876Z,101697.78
2022-11-12T03:02:58.874Z,101703.34
2022-11-12T03:05:32.208Z,101705.28
2022-11-12T03:08:05.265Z,101707.03
2022-11-12T03:10:32.573Z,101701.94
2022-11-12T03:13:01.276Z,101707.22
2022-11-12T03:15:30.070Z,101707.84
2022-11-12T03:18:00.598Z,101720.34
2022-11-12T03:20:28.429Z,101709.22
2022-11-12T03:23:00.601Z,101717.31
2022-11-12T03:25:28.975Z,101718.47
2022-11-12T03:28:08.368Z,101717.22
2022-11-12T03:30:38.635Z,101723.56
2022-11-12T03:33:07.412Z,101724.75
2022-11-12T03:35:35.610Z,101725.06
2022-11-12T03:38:03.934Z,101728.59
2022-11-12T03:40:32.088Z,101731.84
2022-11-12T03:42:59.630Z,101729.09
2022-11-12T03:45:28.291Z,101727.78
2022-11-12T03:47:58.179Z,101728.28
2022-11-12T03:50:28.846Z,101721.69
2022-11-12T03:53:00.137Z,101723.31
2022-11-12T03:55:29.300Z,101715.50
2022-11-12T03:57:57.160Z,101717.47
2022-11-12T04:00:27.263Z,101722.66
2022-11-12T04:02:54.899Z,101713.78
2022-11-12T04:05:41.269Z,101720.53
2022-11-12T04:08:38.606Z,101718.47
2022-11-12T04:11:10.205Z,101713.25
2022-11-12T04:13:38.683Z,101706.88
2022-11-12T04:16:44.618Z,101711.53
2022-11-12T04:19:32.324Z,101720.09
2022-11-12T04:22:07.377Z,101705.19
2022-11-12T04:24:58.621Z,101710.03
2022-11-12T04:27:29.704Z,101708.72
2022-11-12T04:30:15.803Z,101712.16
2022-11-12T04:32:57.063Z,101715.91
2022-11-12T04:35:27.348Z,101717.56
2022-11-12T04:37:55.257Z,101710.50
2022-11-12T04:40:44.047Z,101698.16
2022-11-12T04:43:35.252Z,101698.38
2022-11-12T04:46:04.957Z,101699.22
2022-11-12T04:48:32.208Z,101706.75
2022-11-12T04:51:25.121Z,101704.38
2022-11-12T04:53:52.293Z,101697.75
2022-11-12T04:56:19.238Z,101700.28
2022-11-12T04:58:46.486Z,101704.00
2022-11-12T05:01:13.623Z,101704.88
2022-11-12T05:03:40.994Z,101706.06
2022-11-12T05:06:28.100Z,101704.88
2022-11-12T05:08:55.446Z,101701.72
2022-11-12T05:11:22.378Z,101699.38
2022-11-12T05:13:49.340Z,101697.59
2022-11-12T05:16:16.256Z,101706.63
2022-11-12T05:18:43.179Z,101704.16
2022-11-12T05:21:28.705Z,101705.53
2022-11-12T05:23:55.614Z,101708.81
2022-11-12T05:26:22.602Z,101704.38
2022-11-12T05:28:49.533Z,101713.09
2022-11-12T05:31:16.439Z,101717.66
2022-11-12T05:33:43.356Z,101715.88
2022-11-12T05:36:10.323Z,101717.84
2022-11-12T05:38:39.152Z,101731.13
2022-11-12T05:41:06.280Z,101731.78
2022-11-12T05:43:33.216Z,101728.66
2022-11-12T05:46:00.153Z,101727.13
2022-11-12T05:48:27.600Z,101728.75
2022-11-12T05:53:42.999Z,101728.88
2022-11-12T05:56:11.048Z,101736.50
2022-11-12T05:58:38.337Z,101744.78
2022-11-12T06:01:05.617Z,101743.88
2022-11-12T06:03:32.706Z,101750.28
2022-11-12T06:05:59.630Z,101748.13
2022-11-12T06:08:26.812Z,101748.03
2022-11-12T06:10:54.694Z,101739.03
2022-11-12T06:13:24.031Z,101748.13
2022-11-12T06:15:55.255Z,101747.88
2022-11-12T06:18:23.982Z,101749.06
2022-11-12T06:21:10.190Z,101756.22
2022-11-12T06:23:37.363Z,101762.84
2022-11-12T06:26:04.937Z,101749.13
2022-11-12T06:28:31.967Z,101747.84
2022-11-12T06:30:59.017Z,101753.47
2022-11-12T06:33:25.972Z,101756.28
2022-11-12T06:36:05.336Z,101763.75
2022-11-12T06:38:39.975Z,101763.13
2022-11-12T06:41:09.330Z,101755.28
2022-11-12T06:43:36.517Z,101760.16
2022-11-12T06:46:13.793Z,101766.09
2022-11-12T06:48:41.780Z,101760.41
2022-11-12T06:51:20.858Z,101771.25
2022-11-12T06:53:49.456Z,101773.00
2022-11-12T06:56:16.747Z,101771.03
2022-11-12T06:58:43.944Z,101778.03
2022-11-12T07:01:17.466Z,101769.63
2022-11-12T07:03:45.022Z,101785.00
2022-11-12T07:06:20.521Z,101780.19
2022-11-12T07:08:49.729Z,101785.78
2022-11-12T07:11:18.863Z,101793.84
2022-11-12T07:13:47.146Z,101782.66
2022-11-12T07:16:18.591Z,101796.84
2022-11-12T07:18:47.137Z,101795.03
2022-11-12T07:21:18.402Z,101792.69
2022-11-12T07:23:46.552Z,101792.66
2022-11-12T07:26:23.313Z,101788.03
2022-11-12T07:28:52.398Z,101790.75
2022-11-12T07:31:20.432Z,101788.03
2022-11-12T07:33:50.886Z,101794.00
2022-11-12T07:36:21.125Z,101801.84
2022-11-12T07:38:52.757Z,101794.50
2022-11-12T07:41:23.329Z,101796.78
2022-11-12T07:43:53.676Z,101796.13
2022-11-12T07:46:25.110Z,101798.47
2022-11-12T07:48:53.647Z,101798.41
2022-11-12T07:51:27.014Z,101799.88
2022-11-12T07:53:59.536Z,101798.06
2022-11-12T07:56:28.119Z,101789.88
2022-11-12T07:58:55.431Z,101799.41
2022-11-12T08:01:41.014Z,101793.88
2022-11-12T08:04:10.684Z,101790.59
2022-11-12T08:06:38.392Z,101800.69
2022-11-12T08:09:08.413Z,101798.06
2022-11-12T08:11:36.084Z,101792.34
2022-11-12T08:14:03.567Z,101792.06
2022-11-12T08:16:30.608Z,101795.41
2022-11-12T08:18:57.603Z,101796.16
2022-11-12T08:21:25.035Z,101801.72
2022-11-12T08:23:51.974Z,101805.78
2022-11-12T08:26:21.011Z,101798.25
2022-11-12T08:28:48.325Z,101804.63
2022-11-12T08:31:21.103Z,101802.88
2022-11-12T08:33:48.067Z,101809.91
2022-11-12T08:36:17.330Z,101813.00
2022-11-12T08:38:44.462Z,101815.72
2022-11-12T08:41:14.533Z,101802.44
2022-11-12T08:43:42.628Z,101822.28
2022-11-12T08:46:10.302Z,101808.63
2022-11-12T08:48:37.530Z,101815.44
2022-11-12T08:51:05.947Z,101814.66
2022-11-12T08:53:33.001Z,101818.72
2022-11-12T08:56:00.123Z,101815.44
2022-11-12T08:58:27.627Z,101821.81
2022-11-12T09:00:56.518Z,101829.75
2022-11-12T09:03:26.307Z,101817.97
2022-11-12T09:05:54.274Z,101825.56
2022-11-12T09:08:25.458Z,101829.34
2022-11-12T09:10:52.873Z,101823.00
2022-11-12T09:13:21.051Z,101840.09
2022-11-12T09:15:48.069Z,101831.84
2022-11-12T09:18:17.906Z,101837.13
2022-11-12T09:20:45.806Z,101828.53
2022-11-12T09:23:17.910Z,101837.56
2022-11-12T09:25:45.135Z,101838.66
2022-11-12T09:28:19.276Z,101836.19
2022-11-12T09:30:51.567Z,101833.13
2022-11-12T09:33:23.401Z,101842.13
2022-11-12T09:35:51.692Z,101835.66
2022-11-12T09:38:20.012Z,101836.19
2022-11-12T09:40:52.666Z,101839.09
2022-11-12T09:43:37.565Z,101834.00
2022-11-12T09:46:36.559Z,101831.84
2022-11-12T09:49:33.592Z,101840.09
2022-11-12T09:52:14.651Z,101837.66
2022-11-12T09:54:42.541Z,101838.09
2022-11-12T09:57:12.607Z,101843.84
2022-11-12T09:59:42.811Z,101836.84
2022-11-12T10:02:50.864Z,101842.41
2022-11-12T10:05:41.115Z,101841.25
2022-11-12T10:08:57.226Z,101841.25
2022-11-12T10:11:54.078Z,101847.09
2022-11-12T10:15:30.756Z,101848.09
2022-11-12T10:18:25.071Z,101840.03
2022-11-12T10:21:28.990Z,101850.53
2022-11-12T10:24:00.263Z,101849.84
2022-11-12T10:26:28.737Z,101849.75
2022-11-12T10:29:14.242Z,101863.06
2022-11-12T10:31:41.188Z,101864.94
2022-11-12T10:34:14.614Z,101858.13
2022-11-12T10:36:48.920Z,101858.84
2022-11-12T10:39:35.911Z,101860.69
2022-11-12T10:42:03.992Z,101863.66
2022-11-12T10:44:31.111Z,101854.94
2022-11-12T10:47:23.111Z,101867.22
2022-11-12T10:50:30.126Z,101866.16
2022-11-12T10:53:04.686Z,101853.56
2022-11-12T10:55:56.675Z,101858.09
2022-11-12T10:58:23.950Z,101857.22
2022-11-12T11:01:07.286Z,101857.09
2022-11-12T11:03:47.119Z,101860.88
2022-11-12T11:06:16.795Z,101855.66
2022-11-12T11:08:50.172Z,101855.94
2022-11-12T11:11:16.958Z,101861.03
2022-11-12T11:13:54.412Z,101866.69
2022-11-12T11:16:30.085Z,101854.81
2022-11-12T11:19:02.422Z,101858.00
2022-11-12T11:22:05.366Z,101855.28
2022-11-12T11:24:48.339Z,101854.41
2022-11-12T11:27:59.574Z,101849.19
2022-11-12T11:30:26.741Z,101859.13
2022-11-12T11:33:36.116Z,101856.69
2022-11-12T11:36:40.422Z,101855.22
2022-11-12T11:39:36.242Z,101858.66
2022-11-12T11:42:47.109Z,101861.69
2022-11-12T11:45:17.172Z,101857.66
2022-11-12T11:48:01.525Z,101866.19
2022-11-12T11:50:39.361Z,101869.25
2022-11-12T11:53:33.765Z,101866.41
2022-11-12T11:56:10.380Z,101862.13
2022-11-12T11:59:03.934Z,101865.69
2022-11-12T12:02:18.622Z,101859.31
2022-11-12T12:05:00.206Z,101855.09
2022-11-12T12:08:00.759Z,101856.91
2022-11-12T12:11:09.219Z,101854.94
2022-11-12T12:13:56.242Z,101849.75
2022-11-12T12:16:52.103Z,101855.84
2022-11-12T12:19:51.715Z,101850.09
2022-11-12T12:22:35.988Z,101849.00
2022-11-12T12:25:26.063Z,101848.97
2022-11-12T12:28:32.859Z,101840.78
2022-11-12T12:31:08.520Z,101848.84
2022-11-12T12:33:45.968Z,101847.03
2022-11-12T12:36:41.414Z,101851.53
2022-11-12T12:39:26.079Z,101845.72
2022-11-12T12:42:09.729Z,101845.84
2022-11-12T12:45:03.398Z,101851.75
2022-11-12T12:47:37.365Z,101841.09
2022-11-12T12:50:12.972Z,101847.97
2022-11-12T12:53:15.505Z,101844.38
2022-11-12T12:55:47.980Z,101834.44
2022-11-12T12:58:27.445Z,101850.69
2022-11-12T13:01:35.357Z,101848.31
2022-11-12T13:04:08.569Z,101848.31
2022-11-12T13:06:39.721Z,101849.53
2022-11-12T13:09:12.887Z,101853.63
2022-11-12T13:12:01.268Z,101853.31
2022-11-12T13:14:37.221Z,101849.00
2022-11-12T13:17:13.209Z,101847.38
2022-11-12T13:19:58.065Z,101842.16
2022-11-12T13:22:24.860Z,101856.31
2022-11-12T13:25:10.654Z,101857.84
2022-11-12T13:27:40.629Z,101857.31
2022-11-12T13:30:16.257Z,101856.69
2022-11-12T13:32:51.867Z,101861.66
2022-11-12T13:35:39.576Z,101866.91
2022-11-12T13:38:09.332Z,101870.41
2022-11-12T13:41:00.271Z,101863.31
2022-11-12T13:43:33.940Z,101860.56
2022-11-12T13:46:10.897Z,101853.59
2022-11-12T13:48:51.917Z,101855.72
2022-11-12T13:51:46.547Z,101851.53
2022-11-12T13:54:25.416Z,101853.94
2022-11-12T13:56:52.317Z,101856.03
2022-11-12T13:59:23.290Z,101858.13
2022-11-12T14:01:50.781Z,101856.50
2022-11-12T14:04:24.325Z,101865.78
2022-11-12T14:06:56.492Z,101855.38
2022-11-12T14:09:44.359Z,101860.47
2022-11-12T14:12:21.510Z,101856.56
2022-11-12T14:15:13.049Z,101861.31
2022-11-12T14:17:45.998Z,101858.22
2022-11-12T14:20:35.306Z,101860.88
2022-11-12T14:23:24.432Z,101861.50
2022-11-12T14:25:54.905Z,101854.19
2022-11-12T14:28:36.826Z,101858.94
2022-11-12T14:31:11.747Z,101854.94
2022-11-12T14:33:38.687Z,101853.88
2022-11-12T14:36:15.489Z,101860.84
2022-11-12T14:38:51.967Z,101858.47
2022-11-12T14:41:27.084Z,101853.28
2022-11-12T14:44:11.503Z,101851.47
2022-11-12T14:46:48.373Z,101845.09
2022-11-12T14:49:40.684Z,101850.94
2022-11-12T14:52:27.872Z,101857.50
2022-11-12T14:55:06.208Z,101856.91
2022-11-12T14:57:33.334Z,101848.09
2022-11-12T15:00:00.327Z,101854.28
2022-11-12T15:02:48.886Z,101863.56
2022-11-12T15:05:23.557Z,101861.06
2022-11-12T15:08:33.524Z,101862.78
2022-11-12T15:11:25.770Z,101860.56
2022-11-12T15:13:56.388Z,101859.94
2022-11-12T15:16:35.736Z,101861.84
2022-11-12T15:19:13.763Z,101863.88
2022-11-12T15:21:55.704Z,101862.13
2022-11-12T15:24:33.574Z,101871.97
2022-11-12T15:27:22.599Z,101869.06
2022-11-12T15:29:49.566Z,101869.97
2022-11-12T15:32:16.360Z,101876.88
2022-11-12T15:34:45.830Z,101870.50
2022-11-12T15:37:29.278Z,101871.69
2022-11-12T15:39:59.839Z,101862.50
2022-11-12T15:42:41.944Z,101864.13
2022-11-12T15:45:21.040Z,101876.97
2022-11-12T15:47:48.453Z,101876.06
2022-11-12T15:50:21.600Z,101866.59
2022-11-12T15:52:49.359Z,101884.63
2022-11-12T15:55:19.410Z,101884.59
2022-11-12T15:57:52.736Z,101882.16
2022-11-12T16:00:24.598Z,101877.69
2022-11-12T16:03:16.727Z,101896.72
2022-11-12T16:05:44.822Z,101890.72
2022-11-12T16:08:12.241Z,101882.69
2022-11-12T16:10:42.667Z,101900.72
2022-11-12T16:13:20.981Z,101902.53
2022-11-12T16:15:51.604Z,101900.91
2022-11-12T16:18:19.000Z,101904.56
2022-11-12T16:20:47.266Z,101915.97
2022-11-12T16:23:14.348Z,101921.41
2022-11-12T16:25:43.133Z,101916.75
2022-11-12T16:28:19.097Z,101912.34
2022-11-12T16:30:47.837Z,101904.19
2022-11-12T16:33:15.058Z,101903.81
2022-11-12T16:35:42.294Z,101918.41
2022-11-12T16:38:17.929Z,101911.97
2022-11-12T16:40:45.765Z,101917.31
2022-11-12T16:43:12.820Z,101909.59
2022-11-12T16:45:42.994Z,101915.50
2022-11-12T16:48:27.934Z,101910.28
2022-11-12T16:50:54.916Z,101905.88
2022-11-12T16:53:21.829Z,101905.19
2022-11-12T16:55:49.849Z,101909.88
2022-11-12T16:58:17.040Z,101911.41
2022-11-12T17:00:50.075Z,101906.03
2022-11-12T17:03:17.084Z,101907.34
2022-11-12T17:05:44.218Z,101911.50
2022-11-12T17:08:11.222Z,101907.84
2022-11-12T17:10:38.617Z,101907.50
2022-11-12T17:13:05.560Z,101906.56
2022-11-12T17:15:32.466Z,101902.91
2022-11-12T17:17:59.403Z,101904.03
2022-11-12T17:20:26.379Z,101902.75
2022-11-12T17:22:53.297Z,101903.38
2022-11-12T17:25:20.227Z,101904.38
2022-11-12T17:27:47.231Z,101899.03
2022-11-12T17:30:14.423Z,101897.28
2022-11-12T17:32:41.446Z,101899.56
2022-11-12T17:35:08.617Z,101914.06
2022-11-12T17:37:35.558Z,101905.41
2022-11-12T17:40:02.760Z,101900.19
2022-11-12T17:42:29.925Z,101903.63
2022-11-12T17:44:56.923Z,101895.25
2022-11-12T17:47:23.902Z,101905.66
2022-11-12T17:49:50.854Z,101915.31
2022-11-12T17:52:17.844Z,101905.66
2022-11-12T17:54:44.809Z,101910.03
2022-11-12T17:57:11.887Z,101910.84
2022-11-12T17:59:38.801Z,101898.63
2022-11-12T18:02:05.735Z,101909.31
2022-11-12T18:04:32.644Z,101912.13
2022-11-12T18:06:59.624Z,101908.03
2022-11-12T18:09:26.565Z,101903.31
2022-11-12T18:11:54.897Z,101901.63
2022-11-12T18:14:23.125Z,101906.84
2022-11-12T18:16:50.132Z,101900.97
2022-11-12T18:19:17.372Z,101896.16
2022-11-12T18:21:44.486Z,101890.72
2022-11-12T18:24:15.972Z,101906.91
2022-11-12T18:26:44.320Z,101900.75
2022-11-12T18:29:12.782Z,101896.50
2022-11-12T18:31:40.701Z,101907.66
2022-11-12T18:34:13.570Z,101901.44
2022-11-12T18:36:40.494Z,101901.28
2022-11-12T18:39:07.643Z,101893.63
2022-11-12T18:41:34.613Z,101899.34
2022-11-12T18:44:02.093Z,101908.09
2022-11-12T18:46:29.079Z,101910.84
2022-11-12T18:48:56.010Z,101908.56
2022-11-12T18:51:23.157Z,101914.66
2022-11-12T18:53:50.123Z,101895.28
2022-11-12T18:56:20.370Z,101897.19
2022-11-12T18:58:48.243Z,101904.47
2022-11-12T19:01:23.951Z,101908.56
2022-11-12T19:03:56.600Z,101909.81
2022-11-12T19:06:25.051Z,101898.19
2022-11-12T19:08:58.050Z,101912.19
2022-11-12T19:11:24.980Z,101921.13
2022-11-12T19:13:54.235Z,101907.28
2022-11-12T19:16:23.173Z,101905.81
2022-11-12T19:18:52.254Z,101904.34
2022-11-12T19:21:25.640Z,101898.53
2022-11-12T19:23:57.135Z,101915.19
2022-11-12T19:26:24.210Z,101906.44
2022-11-12T19:28:51.253Z,101913.75
2022-11-12T19:31:23.227Z,101924.03
2022-11-12T19:33:50.961Z,101923.03
2022-11-12T19:36:24.255Z,101910.56
2022-11-12T19:38:56.685Z,101907.38
2022-11-12T19:41:24.589Z,101905.28
2022-11-12T19:43:52.380Z,101917.47
2022-11-12T19:46:20.389Z,101912.75
2022-11-12T19:48:47.340Z,101918.28
2022-11-12T19:51:14.583Z,101922.56
2022-11-12T19:53:46.558Z,101922.66
2022-11-12T19:56:17.286Z,101925.84
2022-11-12T19:58:48.568Z,101922.66
2022-11-12T20:01:18.369Z,101917.47
2022-11-12T20:03:45.947Z,101925.84
2022-11-12T20:06:27.247Z,101932.56
2022-11-12T20:08:54.253Z,101935.66
2022-11-12T20:11:21.412Z,101922.38
2022-11-12T20:13:48.388Z,101925.03
2022-11-12T20:16:23.920Z,101928.56
2022-11-12T20:18:56.367Z,101930.94
2022-11-12T20:21:24.479Z,101934.78
2022-11-12T20:23:51.454Z,101927.66
2022-11-12T20:26:18.497Z,101934.03
2022-11-12T20:28:45.731Z,101932.03
2022-11-12T20:31:21.995Z,101932.84
2022-11-12T20:33:50.260Z,101943.53
2022-11-12T20:36:22.458Z,101930.66
2022-11-12T20:38:50.502Z,101936.41
2022-11-12T20:41:23.900Z,101942.13
2022-11-12T20:43:57.680Z,101940.03
2022-11-12T20:46:26.470Z,101937.41
2022-11-12T20:48:56.782Z,101925.09
2022-11-12T20:51:28.587Z,101928.19
2022-11-12T20:54:00.290Z,101928.25
2022-11-12T20:56:29.976Z,101922.63
2022-11-12T20:58:58.376Z,101932.94
2022-11-12T21:01:27.492Z,101933.81
2022-11-12T21:03:54.518Z,101925.88
2022-11-12T21:06:26.067Z,101924.72
2022-11-12T21:08:53.237Z,101929.34
2022-11-12T21:11:23.574Z,101940.59
2022-11-12T21:13:50.804Z,101932.47
2022-11-12T21:16:17.881Z,101925.38
2022-11-12T21:18:44.887Z,101927.19
2022-11-12T21:21:19.258Z,101918.72
2022-11-12T21:23:49.197Z,101928.50
2022-11-12T21:26:21.429Z,101928.91
2022-11-12T21:28:54.454Z,101933.44
2022-11-12T21:31:25.441Z,101927.97
2022-11-12T21:33:55.038Z,101940.09
2022-11-12T21:36:23.401Z,101941.56
2022-11-12T21:38:50.695Z,101943.00
2022-11-12T21:41:21.510Z,101930.00
2022-11-12T21:43:49.254Z,101940.19
2022-11-12T21:46:22.334Z,101934.63
2022-11-12T21:48:54.888Z,101942.81
2022-11-12T21:51:26.450Z,101940.72
2022-11-12T21:54:03.326Z,101942.19
2022-11-12T21:56:30.877Z,101942.88
2022-11-12T21:59:01.538Z,101946.00
2022-11-12T22:01:31.656Z,101941.81
2022-11-12T22:03:59.836Z,101941.16
2022-11-12T22:06:29.782Z,101946.16
2022-11-12T22:08:58.337Z,101934.66
2022-11-12T22:11:27.899Z,101945.88
2022-11-12T22:13:54.952Z,101939.78
2022-11-12T22:16:25.421Z,101946.56
2022-11-12T22:18:55.027Z,101943.34
2022-11-12T22:21:27.293Z,101934.50
2022-11-12T22:23:56.756Z,101943.31
2022-11-12T22:26:27.616Z,101939.19
2022-11-12T22:28:57.562Z,101936.56
2022-11-12T22:31:28.639Z,101947.53
2022-11-12T22:33:58.511Z,101934.72
2022-11-12T22:36:29.067Z,101929.34
2022-11-12T22:38:56.878Z,101934.25
2022-11-12T22:41:30.227Z,101936.72
2022-11-12T22:44:00.911Z,101933.16
2022-11-12T22:46:35.554Z,101940.06
2022-11-12T22:49:04.506Z,101933.13
2022-11-12T22:51:33.578Z,101937.06
2022-11-12T22:54:04.032Z,101944.38
2022-11-12T22:56:34.513Z,101936.56
2022-11-12T22:59:03.641Z,101936.34
2022-11-12T23:01:34.197Z,101937.56
2022-11-12T23:04:06.502Z,101927.53
2022-11-12T23:06:33.549Z,101931.13
2022-11-12T23:09:01.541Z,101923.22
2022-11-12T23:11:29.090Z,101931.34
2022-11-12T23:13:56.665Z,101932.41
2022-11-12T23:16:30.127Z,101929.75
2022-11-12T23:18:57.465Z,101931.09
2022-11-12T23:21:29.050Z,101936.78
2022-11-12T23:23:59.919Z,101924.88
2022-11-12T23:26:33.775Z,101930.44
2022-11-12T23:29:01.786Z,101934.34
2022-11-12T23:31:32.239Z,101930.84
2022-11-12T23:34:00.401Z,101933.00
2022-11-12T23:36:28.428Z,101931.00
2022-11-12T23:38:57.482Z,101926.38
2022-11-12T23:41:26.741Z,101928.09
2022-11-12T23:43:55.238Z,101934.22
2022-11-12T23:46:22.783Z,101918.34
2022-11-12T23:48:50.080Z,101924.50
2022-11-12T23:51:21.781Z,101924.88
2022-11-12T23:53:49.633Z,101916.19
2022-11-12T23:56:19.719Z,101925.34
2022-11-12T23:58:47.514Z,101918.94
